• Join FlightAware (Why Join?)
  • Login
  • US Flag 
07:12PM EDT


 

Airport Tracker/Info


-or-


 

Live Flight TrackerFlight Track Log ✈ AWE3268 ✈ 03-May-2013 ✈ KCMH - KPHL

Flight Track Log - Related Links

Times and Time Zones

All times are in EDT time to prevent confusion due to time zone crossing. See the AWE3268 flight status page for this flight to view local times or setup timezone preferences in your user account.

Time Position Orientation Groundspeed Altitude Reporting Facility
EDT Latitude Longitude Course Direction KTS MPH feet Rate Location/Type
01:59PM 40.0008 -82.8719 81° East 155 178 1,600  Level Indianapolis Center
01:59PM 40.0003 -82.8500 92° East 142 163 2,600 1,680 Climbing Indianapolis Center
02:00PM 40.0008 -82.8039 89° East 180 207 3,700 1,740 Climbing Indianapolis Center
02:00PM 39.9992 -82.7711 94° East 229 264 4,600 3,240 Climbing Indianapolis Center
02:01PM 40.0404 -82.4632 83° East  Level FlightAware Approximate
02:01PM 39.9997 -82.6994 89° East 242 278 7,100  Level Indianapolis Center
02:02PM 40.0569 -82.3218 79° East  Level FlightAware Approximate
02:02PM 40.0022 -82.6014 88° East 267 307 9,800  Level Indianapolis Center
02:03PM 40.0785 -82.1816 79° East  Level FlightAware Approximate
02:03PM 40.0047 -82.4861 88° East 313 360 10,800  Level Indianapolis Center
02:04PM 40.0971 -82.0405 81° East  Level FlightAware Approximate
02:04PM 40.0228 -82.3553 80° East 361 415 13,300  Level Indianapolis Center
02:05PM 40.0417 -82.2233 79° East 366 421 15,400 2,100 Climbing Indianapolis Center
02:06PM 40.0600 -82.0842 80° East 384 442 17,700 1,980 Climbing Indianapolis Center
02:07PM 40.0797 -81.9431 80° East 390 449 19,500 1,680 Climbing Indianapolis Center
02:08PM 40.1003 -81.7964 80° East 405 466 21,200 1,740 Climbing Indianapolis Center
02:09PM 40.1228 -81.6244 80° East 417 480 23,100 1,560 Climbing Indianapolis Center
02:10PM 40.1361 -81.5361 79° East 409 471 23,700 1,140 Climbing Cleveland Center
02:11PM 40.1581 -81.3789 80° East 420 483 24,900 1,200 Climbing Cleveland Center
02:12PM 40.1781 -81.2161 81° East 436 502 26,200 1,080 Climbing Cleveland Center
02:13PM 40.1997 -81.0533 80° East 449 517 27,100 900 Climbing Cleveland Center
02:14PM 40.2211 -80.8875 80° East 454 522 28,000 780 Climbing Cleveland Center
02:15PM 40.2400 -80.7328 81° East 468 539 28,700 480 Climbing Cleveland Center
02:16PM 40.2611 -80.5614 81° East 468 539 29,000 120 Climbing Cleveland Center
02:17PM 40.2692 -80.3844 87° East 474 545 29,000  Level Cleveland Center
02:18PM 40.2750 -80.1911 88° East 483 556 29,000  Level Cleveland Center
02:19PM 40.2806 -80.0142 88° East 478 550 29,000  Level Cleveland Center
02:20PM 40.2878 -79.8536 87° East 478 550 29,000  Level Cleveland Center
02:21PM 40.2928 -79.6794 88° East 478 550 29,000  Level Cleveland Center
02:22PM 40.2997 -79.5025 87° East 478 550 29,000  Level Cleveland Center
02:23PM 40.3042 -79.3200 88° East 484 557 29,000  Level Cleveland Center
02:24PM 40.3081 -79.1264 88° East 484 557 29,000 -180 Level Cleveland Center
02:25PM 40.3139 -78.9467 88° East 484 557 28,700 -600 Descending Cleveland Center
02:26PM 40.3175 -78.7722 88° East 484 557 27,800 -960 Descending Cleveland Center
02:27PM 40.3147 -78.5981 91° East 478 550 26,800 -840 Descending Cleveland Center
02:29PM 40.3133 -78.2000 90° East 471 542 25,000 -540 Descending New York Center
02:30PM 40.3028 -78.0356 95° East 459 528 25,000  Level New York Center
02:31PM 40.2878 -77.8706 97° East 459 528 25,000 -180 Level New York Center
02:32PM 40.2725 -77.7058 97° East 459 528 24,700 -600 Descending New York Center
02:33PM 40.2547 -77.5436 98° East 459 528 23,800 -1,020 Descending New York Center
02:34PM 40.2392 -77.3789 97° East 454 522 22,700 -1,260 Descending New York Center
02:35PM 40.2186 -77.2217 100° East 449 517 21,300 -1,440 Descending New York Center
02:36PM 40.2019 -77.0681 98° East 443 510 19,900 -1,440 Descending New York Center
02:37PM 40.1889 -76.9200 97° East 420 483 18,500 -1,320 Descending New York Center
02:38PM 40.1772 -76.7831 96° East 399 459 17,400 -1,320 Descending New York Center
02:39PM 40.1669 -76.6544 96° East 374 430 15,900 -1,500 Descending New York Center
02:40PM 40.1578 -76.5425 96° East 350 403 14,400 -1,620 Descending New York Center
02:41PM 40.1456 -76.4083 97° East 345 397 12,800 -1,560 Descending New York Center
02:42PM 40.1361 -76.3017 97° East 335 386 11,400 -1,020 Descending New York Center
02:43PM 40.1211 -76.1700 98° East 335 386 10,800 -780 Descending New York Center
02:44PM 40.1131 -76.0744 96° East 316 364 9,900 -1,020 Descending New York Center
02:45PM 40.1011 -75.9678 98° East 275 316 8,800 -1,320 Descending New York Center
02:46PM 40.0925 -75.8803 97° East 267 307 7,200 -1,440 Descending New York Center
02:47PM 40.0842 -75.7792 96° East 254 292 6,000 -660 Descending New York Center
02:48PM 40.0792 -75.7003 95° East 254 292 6,000  Level New York Center
02:49PM 40.0731 -75.6019 95° East 249 287 6,000  Level New York Center
02:50PM 40.0703 -75.5150 92° East 249 287 6,000  Level New York Center
02:51PM 40.0508 -75.4269 106° East 249 287 6,000  Level New York Center
02:52PM 39.9811 -75.3953 161° South 237 273 6,000  Level New York Center
02:53PM 39.9275 -75.4375 211° Southwest 214 246 6,000  Level New York Center
02:54PM 39.9033 -75.5200 249° West 205 236 6,000  Level New York Center
02:55PM 39.8853 -75.6025 254° West 218 251 6,000 -300 Level New York Center
02:56PM 39.8697 -75.6772 255° West 231 266 5,500 -900 Descending New York Center
02:57PM 39.8267 -75.7067 208° Southwest 168 193 4,200 -660 Descending New York Center
02:59PM 39.8000 -75.6167 111° Southeast 178 205 3,900 -120 Descending Philadelphia TRACON
03:00PM 39.8000 -75.5500 90° East 176 203 4,000  Climbing Philadelphia TRACON
03:01PM 39.8167 -75.4833 72° East 189 217 3,900 -660 Descending Philadelphia TRACON
03:02PM 39.8333 -75.4167 72° East 188 216 2,700 -1,200 Descending Philadelphia TRACON
03:03PM 39.8500 -75.3667 67° East 152 175 1,500 -1,200 Descending Philadelphia TRACON